LEBZ

Badajoz Airport

Badajoz, Spain
METAR LEBZ 201900Z 05004KT 020V080 9999 -RA FEW040 17/15 Q1016
Observed Flight Rules
Oct-20 @ 19:00 UTC (26 minutes ago) Visual Flight Rules
Wind Visibility Clouds Conditions
50° at 4 knots 10,000+ meters
  • Few at 4,000' AGL
  • Light Rain
Temperatures Readings
Current 17°C / 63°F
Dewpoint 15°C / 59°F
Humidity 88%
Altimeter 30" Hg
Pressure 1016 hPa
Elevation 192
METAR LEBZ 201900Z 05004KT 020V080 9999 -RA FEW040 17/15 Q1016
Observed Flight Rules
Oct-20 @ 19:00 UTC
(26 minutes ago)
VFR
Wind Visibility
50° at 4 knots 10,000+ meters
Clouds
  • Few at 4,000' AGL
Conditions
  • Light Rain
Temperature Dewpoint
17°C / 63°F 15°C / 59°F
Humidity Altimeter Pressure
88% 30" Hg 1016 hPa